createdAt,value
2018-01-20T00:00:28.532Z,1.67
2018-01-20T00:02:54.279Z,1.68
2018-01-20T00:05:20.300Z,1.66
2018-01-20T00:07:46.176Z,1.68
2018-01-20T00:10:20.218Z,1.67
2018-01-20T00:12:45.962Z,1.66
2018-01-20T00:15:11.957Z,1.68
2018-01-20T00:17:37.716Z,1.69
2018-01-20T00:20:03.885Z,1.72
2018-01-20T00:22:29.666Z,1.69
2018-01-20T00:25:01.415Z,1.71
2018-01-20T00:27:27.324Z,1.67
2018-01-20T00:29:53.073Z,1.69
2018-01-20T00:32:18.830Z,1.67
2018-01-20T00:34:44.587Z,1.68
2018-01-20T00:37:10.386Z,1.67
2018-01-20T00:39:36.144Z,1.67
2018-01-20T00:42:01.922Z,1.67
2018-01-20T00:44:27.678Z,1.65
2018-01-20T00:46:53.434Z,1.66
2018-01-20T00:49:19.215Z,1.67
2018-01-20T00:51:44.974Z,1.66
2018-01-20T00:54:10.718Z,1.65
2018-01-20T00:56:36.483Z,1.65
2018-01-20T00:59:02.346Z,1.64
2018-01-20T01:01:28.382Z,1.64
2018-01-20T01:03:54.130Z,1.60
2018-01-20T01:06:19.956Z,1.61
2018-01-20T01:08:45.660Z,1.65
2018-01-20T01:11:11.495Z,1.58
2018-01-20T01:13:37.548Z,1.62
2018-01-20T01:16:03.330Z,1.57
2018-01-20T01:18:29.079Z,1.58
2018-01-20T01:20:54.844Z,1.59
2018-01-20T01:23:20.582Z,1.56
2018-01-20T01:25:46.378Z,1.59
2018-01-20T01:28:12.128Z,1.56
2018-01-20T01:30:37.891Z,1.57
2018-01-20T01:33:03.625Z,1.55
2018-01-20T01:35:29.527Z,1.57
2018-01-20T01:37:55.286Z,1.58
2018-01-20T01:40:21.054Z,1.57
2018-01-20T01:42:46.802Z,1.55
2018-01-20T01:45:12.565Z,1.56
2018-01-20T01:47:38.326Z,1.56
2018-01-20T01:50:04.094Z,1.56
2018-01-20T01:52:30.114Z,1.53
2018-01-20T01:54:55.863Z,1.55
2018-01-20T01:57:21.693Z,1.52
2018-01-20T01:59:47.507Z,1.52
2018-01-20T02:02:13.275Z,1.50
2018-01-20T02:04:39.267Z,1.52
2018-01-20T02:07:05.154Z,1.48
2018-01-20T02:09:30.898Z,1.48
2018-01-20T02:11:56.660Z,1.49
2018-01-20T02:14:22.403Z,1.47
2018-01-20T02:16:48.159Z,1.46
2018-01-20T02:19:13.930Z,1.44
2018-01-20T02:21:39.694Z,1.46
2018-01-20T02:24:05.443Z,1.46
2018-01-20T02:26:31.627Z,1.43
2018-01-20T02:28:57.389Z,1.40
2018-01-20T02:31:23.131Z,1.40
2018-01-20T02:33:48.886Z,1.38
2018-01-20T02:36:14.655Z,1.37
2018-01-20T02:38:40.425Z,1.38
2018-01-20T02:41:06.171Z,1.37
2018-01-20T02:43:31.932Z,1.37
2018-01-20T02:45:57.691Z,1.36
2018-01-20T02:48:23.459Z,1.36
2018-01-20T02:50:49.203Z,1.35
2018-01-20T02:53:14.973Z,1.40
2018-01-20T02:55:40.732Z,1.39
2018-01-20T02:58:06.504Z,1.37
2018-01-20T03:00:32.264Z,1.41
2018-01-20T03:02:58.031Z,1.41
2018-01-20T03:05:23.802Z,1.37
2018-01-20T03:07:49.570Z,1.39
2018-01-20T03:10:15.326Z,1.41
2018-01-20T03:12:41.087Z,1.42
2018-01-20T03:15:06.855Z,1.41
2018-01-20T03:17:32.599Z,1.40
2018-01-20T03:19:58.358Z,1.44
2018-01-20T03:22:24.120Z,1.40
2018-01-20T03:24:49.874Z,1.40
2018-01-20T03:27:15.602Z,1.40
2018-01-20T03:29:41.355Z,1.40
2018-01-20T03:32:07.087Z,1.38
2018-01-20T03:34:32.846Z,1.40
2018-01-20T03:36:58.585Z,1.37
2018-01-20T03:39:24.342Z,1.38
2018-01-20T03:41:50.089Z,1.36
2018-01-20T03:44:15.839Z,1.35
2018-01-20T03:46:41.582Z,1.37
2018-01-20T03:49:07.322Z,1.35
2018-01-20T03:51:33.078Z,1.37
2018-01-20T03:53:58.838Z,1.37
2018-01-20T03:56:24.599Z,1.34
2018-01-20T03:58:50.355Z,1.35
2018-01-20T04:01:16.126Z,1.35
2018-01-20T04:03:41.858Z,1.32
2018-01-20T04:06:07.597Z,1.32
2018-01-20T04:08:33.337Z,1.29
2018-01-20T04:10:59.088Z,1.31
2018-01-20T04:13:24.819Z,1.32
2018-01-20T04:15:50.569Z,1.33
2018-01-20T04:18:16.312Z,1.34
2018-01-20T04:20:42.054Z,1.34
2018-01-20T04:23:07.868Z,1.33
2018-01-20T04:25:33.603Z,1.31
2018-01-20T04:27:59.343Z,1.33
2018-01-20T04:30:25.079Z,1.33
2018-01-20T04:32:50.836Z,1.32
2018-01-20T04:35:16.578Z,1.29
2018-01-20T04:37:42.325Z,1.31
2018-01-20T04:40:08.066Z,1.30
2018-01-20T04:42:33.814Z,1.30
2018-01-20T04:44:59.558Z,1.26
2018-01-20T04:47:25.310Z,1.27
2018-01-20T04:49:51.059Z,1.27
2018-01-20T04:52:16.820Z,1.27
2018-01-20T04:54:42.567Z,1.30
2018-01-20T04:57:08.323Z,1.30
2018-01-20T04:59:34.070Z,1.25
2018-01-20T05:01:59.820Z,1.28
2018-01-20T05:04:25.560Z,1.25
2018-01-20T05:06:51.315Z,1.29
2018-01-20T05:09:17.043Z,1.26
2018-01-20T05:11:42.793Z,1.28
2018-01-20T05:14:08.542Z,1.27
2018-01-20T05:16:34.302Z,1.28
2018-01-20T05:19:00.042Z,1.29
2018-01-20T05:21:25.774Z,1.32
2018-01-20T05:23:51.536Z,1.31
2018-01-20T05:26:17.276Z,1.30
2018-01-20T05:28:43.027Z,1.32
2018-01-20T05:31:08.814Z,1.29
2018-01-20T05:33:34.530Z,1.29
2018-01-20T05:36:00.258Z,1.28
2018-01-20T05:40:58.519Z,1.30
2018-01-20T05:43:24.263Z,1.24
2018-01-20T05:45:50.003Z,1.26
2018-01-20T05:48:15.753Z,1.25
2018-01-20T05:50:41.514Z,1.23
2018-01-20T05:53:07.269Z,1.24
2018-01-20T05:55:33.005Z,1.19
2018-01-20T05:57:58.735Z,1.19
2018-01-20T06:00:24.498Z,1.21
2018-01-20T06:02:50.235Z,1.20
2018-01-20T06:05:15.983Z,1.23
2018-01-20T06:07:41.730Z,1.19
2018-01-20T06:10:07.479Z,1.18
2018-01-20T06:12:33.217Z,1.15
2018-01-20T06:14:58.950Z,1.13
2018-01-20T06:17:24.678Z,1.10
2018-01-20T06:19:50.417Z,1.14
2018-01-20T06:22:16.190Z,1.10
2018-01-20T06:24:41.951Z,1.11
2018-01-20T06:27:07.697Z,1.10
2018-01-20T06:29:33.446Z,1.05
2018-01-20T06:31:59.180Z,1.05
2018-01-20T06:34:24.930Z,1.02
2018-01-20T06:36:50.669Z,1.01
2018-01-20T06:39:16.394Z,0.98
2018-01-20T06:41:42.134Z,1.03
2018-01-20T06:44:07.862Z,1.02
2018-01-20T06:46:33.602Z,1.02
2018-01-20T06:48:59.347Z,1.00
2018-01-20T06:51:25.089Z,0.98
2018-01-20T06:53:50.829Z,0.99
2018-01-20T06:56:16.585Z,1.01
2018-01-20T06:58:42.334Z,0.98
2018-01-20T07:01:08.090Z,0.98
2018-01-20T07:03:33.839Z,0.97
2018-01-20T07:05:59.606Z,0.96
2018-01-20T07:08:25.347Z,0.98
2018-01-20T07:10:51.090Z,1.01
2018-01-20T07:13:16.836Z,1.04
2018-01-20T07:15:42.604Z,1.03
2018-01-20T07:18:08.347Z,1.01
2018-01-20T07:20:34.087Z,1.03
2018-01-20T07:22:59.838Z,1.04
2018-01-20T07:25:25.584Z,1.06
2018-01-20T07:27:51.327Z,1.11
2018-01-20T07:30:17.069Z,1.14
2018-01-20T07:32:42.815Z,1.15
2018-01-20T07:35:08.556Z,1.16
2018-01-20T07:37:34.291Z,1.18
2018-01-20T07:40:00.038Z,1.17
2018-01-20T07:42:25.816Z,1.22
2018-01-20T07:44:51.554Z,1.22
2018-01-20T07:47:17.304Z,1.23
2018-01-20T07:49:43.051Z,1.25
2018-01-20T07:52:08.803Z,1.26
2018-01-20T07:54:34.555Z,1.28
2018-01-20T07:57:00.313Z,1.26
2018-01-20T07:59:26.063Z,1.28
2018-01-20T08:01:51.807Z,1.28
2018-01-20T08:04:17.561Z,1.30
2018-01-20T08:06:43.315Z,1.33
2018-01-20T08:09:09.066Z,1.33
2018-01-20T08:11:34.799Z,1.32
2018-01-20T08:14:00.560Z,1.32
2018-01-20T08:16:26.401Z,1.35
2018-01-20T08:18:52.167Z,1.38
2018-01-20T08:21:17.907Z,1.38
2018-01-20T08:23:43.642Z,1.45
2018-01-20T08:26:09.370Z,1.45
2018-01-20T08:28:35.122Z,1.46
2018-01-20T08:31:00.878Z,1.54
2018-01-20T08:33:26.626Z,1.56
2018-01-20T08:35:52.366Z,1.58
2018-01-20T08:38:18.110Z,1.54
2018-01-20T08:40:43.844Z,1.57
2018-01-20T08:43:09.587Z,1.58
2018-01-20T08:45:35.322Z,1.54
2018-01-20T08:48:01.071Z,1.51
2018-01-20T08:50:26.827Z,1.52
2018-01-20T08:52:52.574Z,1.54
2018-01-20T08:55:18.322Z,1.57
2018-01-20T08:57:44.071Z,1.56
2018-01-20T09:00:09.834Z,1.55
2018-01-20T09:02:35.568Z,1.54
2018-01-20T09:05:01.315Z,1.55
2018-01-20T09:07:27.061Z,1.57
2018-01-20T09:09:52.811Z,1.58
2018-01-20T09:12:18.554Z,1.58
2018-01-20T09:14:44.298Z,1.62
2018-01-20T09:17:10.050Z,1.58
2018-01-20T09:19:35.790Z,1.62
2018-01-20T09:22:01.522Z,1.59
2018-01-20T09:24:27.262Z,1.60
2018-01-20T09:26:53.002Z,1.61
2018-01-20T09:29:18.751Z,1.60
2018-01-20T09:31:44.504Z,1.62
2018-01-20T09:34:10.251Z,1.65
2018-01-20T09:36:35.989Z,1.61
2018-01-20T09:39:01.738Z,1.61
2018-01-20T09:41:27.489Z,1.65
2018-01-20T09:43:53.222Z,1.61
2018-01-20T09:46:18.969Z,1.64
2018-01-20T09:48:44.710Z,1.59
2018-01-20T09:51:10.459Z,1.63
2018-01-20T09:53:36.210Z,1.65
2018-01-20T09:56:01.955Z,1.70
2018-01-20T09:58:27.695Z,1.68
2018-01-20T10:00:53.446Z,1.70
2018-01-20T10:03:19.187Z,1.74
2018-01-20T10:05:44.942Z,1.77
2018-01-20T10:08:10.678Z,1.77
2018-01-20T10:10:36.414Z,1.74
2018-01-20T10:13:02.150Z,1.70
2018-01-20T10:15:27.903Z,1.70
2018-01-20T10:17:53.639Z,1.73
2018-01-20T10:20:19.370Z,1.78
2018-01-20T10:22:45.127Z,1.72
2018-01-20T10:25:10.900Z,1.71
2018-01-20T10:27:36.606Z,1.67
2018-01-20T10:30:02.407Z,1.69
2018-01-20T10:32:28.183Z,1.71
2018-01-20T10:34:53.926Z,1.71
2018-01-20T10:37:19.768Z,1.76
2018-01-20T10:39:45.531Z,1.78
2018-01-20T10:42:11.299Z,1.83
2018-01-20T10:44:37.037Z,1.88
2018-01-20T10:47:02.778Z,1.93
2018-01-20T10:49:28.511Z,2.08
2018-01-20T10:51:54.262Z,2.05
2018-01-20T10:54:20.023Z,1.96
2018-01-20T10:56:45.778Z,1.91
2018-01-20T10:59:11.522Z,1.87
2018-01-20T11:01:37.298Z,1.85
2018-01-20T11:04:03.035Z,1.86
2018-01-20T11:06:28.774Z,1.88
2018-01-20T11:08:54.518Z,1.92
2018-01-20T11:11:20.254Z,1.89
2018-01-20T11:13:46.002Z,1.95
2018-01-20T11:16:11.746Z,1.96
2018-01-20T11:18:37.499Z,1.98
2018-01-20T11:21:10.075Z,1.93
2018-01-20T11:23:35.814Z,1.89
2018-01-20T11:26:01.546Z,1.95
2018-01-20T11:28:27.301Z,1.94
2018-01-20T11:30:53.046Z,2.00
2018-01-20T11:33:18.805Z,1.99
2018-01-20T11:35:44.563Z,1.92
2018-01-20T11:38:10.346Z,1.93
2018-01-20T11:40:36.082Z,1.93
2018-01-20T11:43:01.823Z,1.95
2018-01-20T11:45:27.566Z,1.92
2018-01-20T11:47:53.302Z,1.94
2018-01-20T11:50:19.159Z,2.02
2018-01-20T11:52:44.977Z,1.96
2018-01-20T11:55:10.726Z,1.94
2018-01-20T11:57:36.503Z,1.99
2018-01-20T12:00:02.345Z,1.94
2018-01-20T12:02:28.098Z,1.95
2018-01-20T12:04:53.851Z,2.07
2018-01-20T12:07:19.601Z,2.07
2018-01-20T12:09:47.461Z,2.03
2018-01-20T12:12:13.206Z,2.03
2018-01-20T12:14:38.968Z,2.03
2018-01-20T12:17:04.798Z,2.05
2018-01-20T12:19:30.529Z,2.02
2018-01-20T12:21:56.317Z,2.01
2018-01-20T12:24:22.074Z,2.04
2018-01-20T12:26:47.826Z,2.07
2018-01-20T12:29:13.587Z,2.03
2018-01-20T12:31:39.511Z,2.02
2018-01-20T12:34:05.455Z,2.08
2018-01-20T12:36:31.698Z,2.04
2018-01-20T12:38:57.450Z,2.06
2018-01-20T12:41:23.219Z,2.08
2018-01-20T12:43:48.978Z,2.14
2018-01-20T12:46:14.742Z,2.10
2018-01-20T12:48:40.661Z,2.10
2018-01-20T12:51:06.414Z,2.07
2018-01-20T12:53:32.458Z,2.07
2018-01-20T12:55:58.223Z,2.11
2018-01-20T12:58:23.962Z,2.10
2018-01-20T13:00:49.715Z,2.15
2018-01-20T13:03:15.463Z,2.14
2018-01-20T13:05:41.215Z,2.18
2018-01-20T13:08:06.986Z,2.20
2018-01-20T13:10:32.730Z,2.16
2018-01-20T13:12:58.544Z,2.15
2018-01-20T13:15:24.330Z,2.16
2018-01-20T13:17:50.151Z,2.16
2018-01-20T13:20:15.898Z,2.16
2018-01-20T13:22:41.655Z,2.19
2018-01-20T13:25:07.406Z,2.16
2018-01-20T13:27:33.160Z,2.15
2018-01-20T13:29:58.906Z,2.17
2018-01-20T13:32:24.658Z,2.14
2018-01-20T13:34:50.402Z,2.13
2018-01-20T13:37:16.154Z,2.14
2018-01-20T13:39:42.007Z,2.17
2018-01-20T13:42:07.781Z,2.18
2018-01-20T13:44:33.515Z,2.15
2018-01-20T13:46:59.399Z,2.13
2018-01-20T13:49:25.200Z,2.19
2018-01-20T13:51:50.946Z,2.18
2018-01-20T13:54:16.700Z,2.18
2018-01-20T13:56:42.450Z,2.19
2018-01-20T13:59:08.235Z,2.20
2018-01-20T14:01:33.986Z,2.23
2018-01-20T14:03:59.762Z,2.26
2018-01-20T14:06:25.507Z,2.26
2018-01-20T14:08:51.288Z,2.22
2018-01-20T14:11:17.015Z,2.21
2018-01-20T14:13:42.766Z,2.19
2018-01-20T14:16:08.521Z,2.22
2018-01-20T14:18:34.276Z,2.21
2018-01-20T14:21:00.021Z,2.23
2018-01-20T14:23:25.758Z,2.24
2018-01-20T14:25:51.487Z,2.28
2018-01-20T14:28:17.231Z,2.31
2018-01-20T14:30:42.971Z,2.29
2018-01-20T14:33:08.714Z,2.33
2018-01-20T14:35:34.484Z,2.32
2018-01-20T14:38:00.234Z,2.28
2018-01-20T14:40:25.973Z,2.26
2018-01-20T14:42:51.701Z,2.18
2018-01-20T14:45:18.333Z,2.13
2018-01-20T14:47:44.157Z,2.11
2018-01-20T14:50:09.903Z,2.04
2018-01-20T14:52:35.661Z,2.06
2018-01-20T14:55:01.414Z,2.01
2018-01-20T14:57:27.155Z,2.01
2018-01-20T14:59:52.911Z,2.04
2018-01-20T15:02:20.062Z,2.03
2018-01-20T15:04:45.903Z,2.08
2018-01-20T15:07:11.635Z,2.04
2018-01-20T15:09:37.386Z,2.03
2018-01-20T15:12:03.131Z,2.06
2018-01-20T15:14:28.867Z,2.07
2018-01-20T15:16:54.598Z,2.10
2018-01-20T15:19:20.347Z,2.06
2018-01-20T15:21:46.086Z,2.07
2018-01-20T15:24:11.810Z,2.06
2018-01-20T15:26:37.552Z,2.05
2018-01-20T15:29:03.278Z,2.07
2018-01-20T15:31:29.019Z,2.08
2018-01-20T15:33:54.742Z,2.08
2018-01-20T15:36:20.495Z,2.07
2018-01-20T15:38:46.234Z,2.07
2018-01-20T15:41:11.978Z,2.06
2018-01-20T15:43:37.703Z,2.08
2018-01-20T15:46:03.483Z,2.05
2018-01-20T15:48:29.225Z,2.07
2018-01-20T15:50:54.960Z,2.05
2018-01-20T15:53:20.714Z,2.05
2018-01-20T15:55:46.462Z,2.03
2018-01-20T15:58:12.243Z,2.03
2018-01-20T16:00:37.982Z,2.03
2018-01-20T16:03:03.731Z,2.04
2018-01-20T16:05:29.484Z,2.06
2018-01-20T16:07:55.243Z,2.03
2018-01-20T16:10:21.006Z,2.01
2018-01-20T16:12:46.774Z,2.00
2018-01-20T16:15:12.522Z,2.00
2018-01-20T16:17:38.274Z,2.00
2018-01-20T16:20:04.016Z,2.01
2018-01-20T16:22:29.758Z,2.04
2018-01-20T16:24:55.486Z,2.01
2018-01-20T16:27:21.256Z,1.99
2018-01-20T16:29:46.997Z,1.94
2018-01-20T16:32:12.770Z,1.93
2018-01-20T16:34:38.520Z,1.88
2018-01-20T16:37:04.268Z,1.88
2018-01-20T16:39:30.029Z,1.98
2018-01-20T16:41:55.770Z,1.99
2018-01-20T16:44:21.507Z,2.00
2018-01-20T16:46:47.251Z,2.03
2018-01-20T16:49:12.993Z,2.00
2018-01-20T16:51:38.720Z,1.99
2018-01-20T16:54:04.470Z,1.94
2018-01-20T16:56:30.375Z,1.95
2018-01-20T16:58:56.123Z,1.93
2018-01-20T17:01:21.867Z,1.94
2018-01-20T17:03:47.607Z,1.88
2018-01-20T17:06:13.338Z,1.93
2018-01-20T17:08:39.097Z,2.06
2018-01-20T17:11:04.846Z,1.95
2018-01-20T17:13:30.591Z,1.91
2018-01-20T17:15:56.343Z,1.94
2018-01-20T17:18:22.101Z,1.94
2018-01-20T17:20:47.862Z,1.86
2018-01-20T17:23:13.668Z,1.84
2018-01-20T17:25:39.426Z,1.83
2018-01-20T17:28:05.179Z,1.82
2018-01-20T17:30:30.932Z,1.83
2018-01-20T17:32:56.676Z,1.85
2018-01-20T17:35:22.417Z,1.82
2018-01-20T17:37:48.150Z,1.81
2018-01-20T17:40:13.907Z,1.84
2018-01-20T17:42:39.634Z,1.85
2018-01-20T17:45:05.381Z,1.80
2018-01-20T17:47:31.138Z,1.80
2018-01-20T17:49:56.902Z,1.78
2018-01-20T17:52:22.648Z,1.78
2018-01-20T17:54:48.419Z,1.75
2018-01-20T17:57:14.146Z,1.71
2018-01-20T17:59:39.898Z,1.71
2018-01-20T18:02:05.670Z,1.69
2018-01-20T18:04:31.418Z,1.67
2018-01-20T18:06:57.166Z,1.67
2018-01-20T18:09:22.916Z,1.65
2018-01-20T18:11:48.678Z,1.67
2018-01-20T18:14:14.434Z,1.64
2018-01-20T18:16:40.194Z,1.74
2018-01-20T18:19:05.939Z,1.89
2018-01-20T18:21:31.696Z,1.82
2018-01-20T18:23:57.486Z,2.09
2018-01-20T18:26:23.263Z,2.12
2018-01-20T18:28:49.007Z,2.08
2018-01-20T18:31:14.758Z,2.35
2018-01-20T18:33:40.490Z,2.37
2018-01-20T18:36:06.244Z,2.31
2018-01-20T18:38:31.974Z,2.30
2018-01-20T18:40:57.731Z,2.47
2018-01-20T18:43:23.483Z,2.50
2018-01-20T18:45:49.239Z,2.55
2018-01-20T18:48:14.980Z,2.49
2018-01-20T18:50:40.714Z,2.84
2018-01-20T18:53:06.483Z,2.51
2018-01-20T18:55:32.231Z,2.62
2018-01-20T18:57:57.982Z,2.83
2018-01-20T19:00:23.721Z,2.82
2018-01-20T19:02:49.482Z,2.38
2018-01-20T19:05:15.227Z,2.07
2018-01-20T19:07:40.981Z,2.04
2018-01-20T19:10:06.762Z,2.02
2018-01-20T19:12:32.511Z,1.92
2018-01-20T19:14:58.262Z,1.93
2018-01-20T19:17:24.021Z,1.97
2018-01-20T19:19:49.750Z,2.01
2018-01-20T19:22:15.486Z,1.95
2018-01-20T19:24:41.214Z,1.92
2018-01-20T19:27:06.960Z,2.16
2018-01-20T19:29:32.696Z,2.15
2018-01-20T19:31:58.431Z,1.72
2018-01-20T19:34:24.195Z,1.72
2018-01-20T19:36:49.938Z,1.73
2018-01-20T19:39:15.680Z,1.78
2018-01-20T19:41:41.415Z,1.78
2018-01-20T19:44:07.154Z,1.80
2018-01-20T19:46:32.887Z,1.73
2018-01-20T19:48:58.653Z,1.69
2018-01-20T19:51:24.386Z,1.69
2018-01-20T19:53:50.142Z,1.66
2018-01-20T19:56:15.879Z,1.69
2018-01-20T19:58:41.630Z,1.67
2018-01-20T20:01:07.384Z,1.61
2018-01-20T20:03:33.163Z,1.64
2018-01-20T20:05:58.910Z,1.63
2018-01-20T20:08:24.662Z,1.62
2018-01-20T20:10:50.401Z,1.65
2018-01-20T20:13:16.135Z,1.57
2018-01-20T20:15:41.892Z,1.53
2018-01-20T20:18:07.687Z,1.53
2018-01-20T20:20:33.414Z,1.49
2018-01-20T20:22:59.167Z,1.49
2018-01-20T20:25:24.921Z,1.51
2018-01-20T20:27:50.658Z,1.49
2018-01-20T20:30:17.203Z,1.47
2018-01-20T20:32:42.948Z,1.49
2018-01-20T20:35:08.700Z,1.47
2018-01-20T20:37:34.444Z,1.47
2018-01-20T20:40:00.208Z,1.47
2018-01-20T20:42:25.973Z,1.53
2018-01-20T20:44:51.735Z,1.53
2018-01-20T20:47:17.483Z,1.54
2018-01-20T20:49:43.231Z,1.57
2018-01-20T20:52:08.995Z,1.56
2018-01-20T20:54:34.789Z,1.58
2018-01-20T20:57:00.540Z,1.59
2018-01-20T20:59:26.350Z,1.64
2018-01-20T21:01:52.099Z,1.62
2018-01-20T21:04:17.850Z,1.60
2018-01-20T21:06:43.610Z,1.60
2018-01-20T21:09:09.343Z,1.63
2018-01-20T21:11:35.087Z,1.58
2018-01-20T21:14:00.825Z,1.59
2018-01-20T21:16:26.575Z,1.56
2018-01-20T21:18:52.311Z,1.55
2018-01-20T21:21:18.066Z,1.57
2018-01-20T21:23:43.798Z,1.53
2018-01-20T21:26:09.546Z,1.50
2018-01-20T21:28:35.286Z,1.49
2018-01-20T21:31:01.027Z,1.46
2018-01-20T21:33:26.770Z,1.50
2018-01-20T21:35:52.514Z,1.50
2018-01-20T21:38:18.250Z,1.51
2018-01-20T21:40:43.994Z,1.51
2018-01-20T21:43:09.741Z,1.52
2018-01-20T21:45:35.475Z,1.57
2018-01-20T21:48:01.259Z,1.53
2018-01-20T21:50:27.034Z,1.53
2018-01-20T21:52:52.778Z,1.54
2018-01-20T21:55:18.531Z,1.56
2018-01-20T21:57:44.306Z,1.57
2018-01-20T22:00:10.059Z,1.60
2018-01-20T22:02:35.987Z,1.58
2018-01-20T22:05:01.754Z,1.56
2018-01-20T22:07:27.506Z,1.56
2018-01-20T22:09:53.255Z,1.53
2018-01-20T22:12:19.018Z,1.53
2018-01-20T22:14:44.767Z,1.54
2018-01-20T22:17:10.522Z,1.55
2018-01-20T22:19:36.271Z,1.58
2018-01-20T22:22:02.028Z,1.57
2018-01-20T22:24:27.758Z,1.58
2018-01-20T22:26:53.503Z,1.60
2018-01-20T22:29:19.258Z,1.59
2018-01-20T22:31:45.004Z,1.57
2018-01-20T22:34:11.570Z,1.55
2018-01-20T22:36:37.299Z,1.59
2018-01-20T22:39:03.050Z,1.61
2018-01-20T22:41:28.793Z,1.62
2018-01-20T22:46:27.154Z,1.60
2018-01-20T22:48:52.904Z,1.60
2018-01-20T22:51:18.643Z,1.60
2018-01-20T22:53:44.397Z,1.68
2018-01-20T22:56:10.154Z,1.66
2018-01-20T22:58:35.915Z,1.61
2018-01-20T23:01:07.871Z,1.60
2018-01-20T23:03:33.631Z,1.61
2018-01-20T23:05:59.380Z,1.64
2018-01-20T23:08:25.142Z,1.66
2018-01-20T23:10:50.891Z,1.78
2018-01-20T23:13:16.650Z,1.73
2018-01-20T23:15:42.393Z,1.76
2018-01-20T23:18:08.143Z,1.81
2018-01-20T23:20:33.896Z,1.81
2018-01-20T23:22:59.651Z,1.84
2018-01-20T23:25:25.406Z,1.83
2018-01-20T23:27:51.162Z,1.77
2018-01-20T23:30:16.941Z,1.65
2018-01-20T23:32:42.690Z,1.53
2018-01-20T23:35:08.444Z,1.47
2018-01-20T23:37:34.207Z,1.40
2018-01-20T23:39:59.966Z,1.40
2018-01-20T23:42:25.697Z,1.47
2018-01-20T23:44:51.459Z,1.53
2018-01-20T23:47:17.202Z,1.53
2018-01-20T23:49:42.947Z,1.52
2018-01-20T23:52:08.694Z,1.37
2018-01-20T23:54:34.441Z,1.38
2018-01-20T23:57:07.325Z,1.23
2018-01-20T23:59:33.111Z,1.05
